Time;durP1;ratioP1;P1;durP2;ratioP2;P2;SDS_P1;SDS_P2;PMS_P1;PMS_P2;Temp;Humidity;BMP_temperature;BMP_pressure;BME280_temperature;BME280_humidity;BME280_pressure;Samples;Min_cycle;Max_cycle;Signal;HPM_P1;HPM_P2
2022/01/22 00:02:19;;;;;;;;;;;5.10;46.90;;;;;;4974639;28;19922;-62
2022/01/22 00:04:45;;;;;;;;;;;5.10;46.60;;;;;;4974676;28;19964;-62
2022/01/22 00:07:10;;;;;;;;;;;5.30;46.40;;;;;;4974839;28;19945;-62
2022/01/22 00:09:39;;;;;;;;;;;5.20;46.60;;;;;;4974896;28;19910;-62
2022/01/22 00:12:07;;;;;;;;;;;5.10;47.20;;;;;;4974649;28;19910;-61
2022/01/22 00:14:33;;;;;;;;;;;5.10;47.50;;;;;;4974358;28;19922;-62
2022/01/22 00:17:00;;;;;;;;;;;5.00;48.40;;;;;;4974530;28;19910;-61
2022/01/22 00:19:26;;;;;;;;;;;5.00;48.10;;;;;;4974466;28;19918;-61
2022/01/22 00:21:52;;;;;;;;;;;5.00;48.00;;;;;;4974740;28;19918;-62
2022/01/22 00:24:18;;;;;;;;;;;5.00;47.60;;;;;;4974523;28;19910;-62
2022/01/22 00:26:43;;;;;;;;;;;5.00;47.60;;;;;;4974349;28;19914;-62
2022/01/22 00:29:10;;;;;;;;;;;5.10;47.00;;;;;;4974450;28;19910;-62
2022/01/22 00:31:36;;;;;;;;;;;5.10;47.30;;;;;;4974279;28;19910;-62
2022/01/22 00:34:02;;;;;;;;;;;5.10;47.30;;;;;;4974548;28;19950;-61
2022/01/22 00:36:28;;;;;;;;;;;5.00;47.70;;;;;;4974571;28;19910;-62
2022/01/22 00:38:53;;;;;;;;;;;5.00;47.50;;;;;;4976911;28;19921;-61
2022/01/22 00:41:20;;;;;;;;;;;4.80;48.10;;;;;;4978151;28;20021;-61
2022/01/22 00:43:46;;;;;;;;;;;4.80;48.40;;;;;;4978035;28;20290;-63
2022/01/22 00:46:12;;;;;;;;;;;4.90;49.00;;;;;;4978569;28;19973;-62
2022/01/22 00:48:37;;;;;;;;;;;4.80;49.90;;;;;;4978279;28;19910;-61
2022/01/22 00:51:03;;;;;;;;;;;4.70;51.10;;;;;;4978123;28;20052;-61
2022/01/22 00:53:28;;;;;;;;;;;5.00;49.20;;;;;;4978231;28;19910;-63
2022/01/22 00:55:54;;;;;;;;;;;5.40;47.70;;;;;;4978156;28;19957;-61
2022/01/22 00:58:19;;;;;;;;;;;5.60;46.50;;;;;;4978058;28;19910;-62
2022/01/22 01:00:45;;;;;;;;;;;5.70;46.50;;;;;;4978115;28;19918;-61
2022/01/22 01:03:11;;;;;;;;;;;5.60;46.40;;;;;;4978042;28;19917;-60
2022/01/22 01:05:36;;;;;;;;;;;5.60;46.90;;;;;;4977515;28;19929;-61
2022/01/22 01:08:03;;;;;;;;;;;5.70;46.80;;;;;;4976890;28;19910;-62
2022/01/22 01:10:29;;;;;;;;;;;5.90;46.30;;;;;;4976613;28;19914;-61
2022/01/22 01:12:54;;;;;;;;;;;5.90;46.30;;;;;;4976523;28;19997;-62
2022/01/22 01:15:42;;;;;;;;;;;5.70;46.70;;;;;;4976655;28;19997;-62
2022/01/22 01:34:13;;;;;;;;;;;5.20;46.70;;;;;;4976438;28;19965;-63
2022/01/22 01:36:39;;;;;;;;;;;5.30;46.30;;;;;;4976255;28;19917;-61
2022/01/22 01:39:08;;;;;;;;;;;5.20;47.40;;;;;;4991454;28;19910;-62
2022/01/22 01:44:00;;;;;;;;;;;5.30;47.50;;;;;;4976198;28;19956;-61
2022/01/22 01:46:29;;;;;;;;;;;5.30;47.60;;;;;;4976257;28;19940;-62
2022/01/22 01:48:55;;;;;;;;;;;5.30;47.70;;;;;;4975521;28;20278;-62
2022/01/22 01:51:23;;;;;;;;;;;5.20;48.40;;;;;;4976355;28;19910;-63
2022/01/22 01:53:58;;;;;;;;;;;5.20;48.50;;;;;;4975860;28;19942;-62
2022/01/22 01:59:08;;;;;;;;;;;5.20;48.80;;;;;;4976105;28;19916;-62
2022/01/22 02:01:34;;;;;;;;;;;5.30;48.50;;;;;;4975761;28;20377;-61
2022/01/22 02:04:00;;;;;;;;;;;5.50;48.20;;;;;;4975848;28;19920;-62
2022/01/22 02:06:25;;;;;;;;;;;5.60;48.30;;;;;;4911835;28;1854859;-62
2022/01/22 02:08:53;;;;;;;;;;;5.60;48.90;;;;;;4976913;28;19961;-62
2022/01/22 02:11:20;;;;;;;;;;;5.60;48.90;;;;;;4976314;28;19916;-62
2022/01/22 02:24:49;;;;;;;;;;;5.60;48.70;;;;;;4976349;28;20380;-61
2022/01/22 02:27:15;;;;;;;;;;;5.60;49.40;;;;;;4976493;28;19917;-62
2022/01/22 02:29:40;;;;;;;;;;;5.60;49.90;;;;;;4976336;28;20302;-61
2022/01/22 02:32:40;;;;;;;;;;;5.60;49.40;;;;;;4976410;28;19965;-62
2022/01/22 02:34:58;;;;;;;;;;;5.60;49.20;;;;;;4976064;28;19910;-62
2022/01/22 02:37:30;;;;;;;;;;;5.60;49.40;;;;;;4976286;28;19914;-63
2022/01/22 02:40:21;;;;;;;;;;;5.60;49.80;;;;;;4975984;28;19918;-62
2022/01/22 02:42:47;;;;;;;;;;;5.60;50.30;;;;;;4975865;28;19917;-62
2022/01/22 02:45:18;;;;;;;;;;;5.60;50.50;;;;;;4976468;28;19910;-61
2022/01/22 02:47:43;;;;;;;;;;;5.60;50.70;;;;;;4976100;28;19910;-62
2022/01/22 02:50:09;;;;;;;;;;;5.50;51.10;;;;;;4976023;28;19945;-62
2022/01/22 02:52:35;;;;;;;;;;;5.60;50.80;;;;;;4976105;28;19910;-63
2022/01/22 02:55:01;;;;;;;;;;;5.60;50.90;;;;;;4975795;28;19914;-63
2022/01/22 02:57:26;;;;;;;;;;;5.70;50.40;;;;;;4976130;28;19917;-61
2022/01/22 02:59:52;;;;;;;;;;;5.80;50.50;;;;;;4975820;28;19914;-61
2022/01/22 03:02:18;;;;;;;;;;;5.90;50.30;;;;;;4975064;28;19965;-62
2022/01/22 03:04:44;;;;;;;;;;;5.80;50.40;;;;;;4975864;28;19957;-61
2022/01/22 03:07:09;;;;;;;;;;;5.80;50.40;;;;;;4975746;28;20378;-61
2022/01/22 03:09:41;;;;;;;;;;;5.80;50.80;;;;;;4975713;28;19910;-62
2022/01/22 03:23:04;;;;;;;;;;;5.90;51.50;;;;;;4975673;28;20343;-62
2022/01/22 03:28:02;;;;;;;;;;;5.80;52.60;;;;;;4975426;28;20029;-62
2022/01/22 03:30:28;;;;;;;;;;;5.90;51.40;;;;;;4975305;28;19938;-62
2022/01/22 03:32:54;;;;;;;;;;;6.00;50.80;;;;;;4975232;28;19914;-61
2022/01/22 03:37:50;;;;;;;;;;;6.00;50.50;;;;;;4975312;28;20732;-61
2022/01/22 03:40:15;;;;;;;;;;;6.00;51.00;;;;;;4975328;28;19918;-61
2022/01/22 03:42:41;;;;;;;;;;;5.90;51.20;;;;;;4975160;28;19961;-62
2022/01/22 03:45:08;;;;;;;;;;;5.90;51.70;;;;;;4974985;28;20004;-61
2022/01/22 03:47:35;;;;;;;;;;;5.90;51.60;;;;;;4975519;28;19997;-61
2022/01/22 03:50:01;;;;;;;;;;;5.90;51.60;;;;;;4973661;28;19910;-62
2022/01/22 03:52:26;;;;;;;;;;;5.90;51.60;;;;;;4974775;28;19933;-61
2022/01/22 03:54:52;;;;;;;;;;;5.90;52.00;;;;;;4975017;28;20392;-61
2022/01/22 03:57:18;;;;;;;;;;;5.90;51.90;;;;;;4974762;28;19914;-62
2022/01/22 03:59:45;;;;;;;;;;;5.80;52.00;;;;;;4974524;28;19921;-61
2022/01/22 04:04:41;;;;;;;;;;;5.80;52.70;;;;;;4974659;28;20281;-61
2022/01/22 04:09:48;;;;;;;;;;;5.80;52.90;;;;;;4974486;28;19917;-60
2022/01/22 04:12:17;;;;;;;;;;;5.70;53.90;;;;;;4974457;28;20388;-63
2022/01/22 04:14:56;;;;;;;;;;;5.60;54.50;;;;;;4974699;28;19910;-61
2022/01/22 04:24:48;;;;;;;;;;;5.50;54.60;;;;;;4974427;28;19910;-62
2022/01/22 04:25:40;;;;;;;;;;;5.50;55.60;;;;;;4974907;28;19957;-61
2022/01/22 04:28:05;;;;;;;;;;;5.50;55.90;;;;;;4974430;28;19919;-62
2022/01/22 04:30:32;;;;;;;;;;;5.50;56.30;;;;;;4974537;28;19914;-61
2022/01/22 04:33:00;;;;;;;;;;;5.40;56.80;;;;;;4974057;28;19924;-62
2022/01/22 04:35:26;;;;;;;;;;;5.40;56.70;;;;;;4974495;28;19910;-62
2022/01/22 04:37:51;;;;;;;;;;;5.40;57.00;;;;;;4974278;28;19917;-62
2022/01/22 04:40:17;;;;;;;;;;;5.30;57.40;;;;;;4974509;28;19914;-62
2022/01/22 04:42:43;;;;;;;;;;;5.30;58.00;;;;;;4974417;28;19942;-63
2022/01/22 04:55:38;;;;;;;;;;;5.40;57.50;;;;;;4974274;28;20004;-61
2022/01/22 04:58:04;;;;;;;;;;;5.30;58.20;;;;;;4974223;28;19925;-61
2022/01/22 05:00:34;;;;;;;;;;;5.30;58.50;;;;;;4974531;28;20282;-62
2022/01/22 05:03:00;;;;;;;;;;;5.20;59.00;;;;;;4974195;28;19922;-62
2022/01/22 05:05:26;;;;;;;;;;;5.30;59.10;;;;;;4974008;28;19926;-63
2022/01/22 05:07:52;;;;;;;;;;;5.20;59.20;;;;;;4974229;28;19914;-62
2022/01/22 05:10:18;;;;;;;;;;;5.20;59.40;;;;;;4974389;28;19937;-60
2022/01/22 05:12:44;;;;;;;;;;;5.30;59.30;;;;;;4974039;28;20374;-63
2022/01/22 05:15:09;;;;;;;;;;;5.40;58.80;;;;;;4974266;28;19910;-60
2022/01/22 05:17:38;;;;;;;;;;;5.40;58.80;;;;;;4974138;28;19910;-63
2022/01/22 05:20:31;;;;;;;;;;;5.40;58.80;;;;;;4974229;28;20893;-62
2022/01/22 05:25:23;;;;;;;;;;;5.40;58.90;;;;;;4976892;28;19916;-62
2022/01/22 05:38:21;;;;;;;;;;;5.20;61.40;;;;;;4977911;28;19953;-60
2022/01/22 05:40:47;;;;;;;;;;;5.20;61.50;;;;;;4977202;28;19918;-61
2022/01/22 05:43:12;;;;;;;;;;;5.10;61.80;;;;;;4976006;28;19950;-62
2022/01/22 05:45:38;;;;;;;;;;;5.00;62.20;;;;;;4977530;28;19910;-63
2022/01/22 05:48:03;;;;;;;;;;;5.00;62.70;;;;;;4977166;28;20357;-62
2022/01/22 05:50:47;;;;;;;;;;;5.00;62.90;;;;;;4977603;28;19918;-60
2022/01/22 05:53:35;;;;;;;;;;;5.00;64.00;;;;;;4977151;28;20000;-61
2022/01/22 06:01:15;;;;;;;;;;;5.10;63.30;;;;;;4977237;28;19925;-63
2022/01/22 06:03:41;;;;;;;;;;;5.10;63.30;;;;;;4977194;28;20473;-61
2022/01/22 06:06:07;;;;;;;;;;;5.00;63.60;;;;;;4977120;28;19926;-62
2022/01/22 06:08:41;;;;;;;;;;;5.10;63.70;;;;;;4988232;28;19910;-62
2022/01/22 06:11:10;;;;;;;;;;;5.00;64.00;;;;;;4995623;28;19925;-62
2022/01/22 06:13:46;;;;;;;;;;;5.00;63.90;;;;;;4986666;28;19910;-60
2022/01/22 06:16:13;;;;;;;;;;;5.00;64.00;;;;;;4977080;28;19910;-62
2022/01/22 06:18:38;;;;;;;;;;;5.00;63.90;;;;;;4976818;28;19911;-62
2022/01/22 06:21:04;;;;;;;;;;;5.00;63.70;;;;;;4976733;28;19924;-62
2022/01/22 06:23:30;;;;;;;;;;;5.00;63.90;;;;;;4976676;28;20297;-61
2022/01/22 06:26:00;;;;;;;;;;;4.90;64.20;;;;;;4976509;28;19979;-63
2022/01/22 06:28:28;;;;;;;;;;;5.00;64.40;;;;;;4976755;28;19910;-62
2022/01/22 06:30:54;;;;;;;;;;;5.10;64.10;;;;;;4976384;28;19914;-60
2022/01/22 06:33:20;;;;;;;;;;;5.10;64.10;;;;;;4976501;28;20045;-61
2022/01/22 06:35:45;;;;;;;;;;;5.00;64.40;;;;;;4975223;28;19910;-62
2022/01/22 06:38:11;;;;;;;;;;;4.80;65.10;;;;;;4976429;28;19910;-61
2022/01/22 06:43:03;;;;;;;;;;;4.80;66.00;;;;;;4975998;28;19979;-61
2022/01/22 06:45:28;;;;;;;;;;;5.10;65.00;;;;;;4976201;28;20363;-62
2022/01/22 06:47:54;;;;;;;;;;;5.00;64.70;;;;;;4976192;28;19921;-61
2022/01/22 06:50:21;;;;;;;;;;;4.90;64.80;;;;;;4975835;28;19965;-62
2022/01/22 06:52:47;;;;;;;;;;;4.80;65.40;;;;;;4975943;28;19989;-62
2022/01/22 06:55:16;;;;;;;;;;;4.90;65.50;;;;;;4976057;28;20274;-61
2022/01/22 06:57:41;;;;;;;;;;;5.00;65.10;;;;;;4975958;28;19911;-61
2022/01/22 07:00:08;;;;;;;;;;;5.10;64.60;;;;;;4975650;28;19918;-63
2022/01/22 07:02:33;;;;;;;;;;;5.00;64.80;;;;;;4990513;28;20374;-62
2022/01/22 07:04:59;;;;;;;;;;;5.10;65.00;;;;;;4975424;28;19921;-62
2022/01/22 07:07:25;;;;;;;;;;;5.20;64.20;;;;;;4975420;28;19914;-60
2022/01/22 07:09:50;;;;;;;;;;;5.00;64.60;;;;;;4975420;28;20045;-63
2022/01/22 07:12:16;;;;;;;;;;;4.90;65.20;;;;;;4975438;28;20016;-62
2022/01/22 07:14:42;;;;;;;;;;;4.80;65.70;;;;;;4975261;28;19917;-62
2022/01/22 07:17:08;;;;;;;;;;;5.20;70.30;;;;;;4975559;28;19910;-64
2022/01/22 07:19:39;;;;;;;;;;;5.50;67.40;;;;;;4975101;28;19920;-64
2022/01/22 07:22:19;;;;;;;;;;;5.80;64.40;;;;;;4973873;28;19965;-62
2022/01/22 07:24:44;;;;;;;;;;;5.70;63.20;;;;;;4975128;28;19910;-64
2022/01/22 07:27:10;;;;;;;;;;;5.40;63.40;;;;;;4975108;28;19917;-64
2022/01/22 07:29:35;;;;;;;;;;;5.40;64.40;;;;;;4975219;28;19957;-64
2022/01/22 07:32:03;;;;;;;;;;;5.70;64.10;;;;;;4974935;28;19968;-67
2022/01/22 07:34:28;;;;;;;;;;;5.70;63.30;;;;;;4975299;28;19972;-66
2022/01/22 07:36:54;;;;;;;;;;;5.60;63.70;;;;;;4974893;28;19914;-66
2022/01/22 07:39:19;;;;;;;;;;;5.60;63.80;;;;;;4975124;28;20036;-65
2022/01/22 07:41:46;;;;;;;;;;;5.80;63.60;;;;;;4974824;28;19926;-63
2022/01/22 07:44:12;;;;;;;;;;;5.90;62.70;;;;;;4974717;28;20381;-63
2022/01/22 07:46:37;;;;;;;;;;;5.90;62.50;;;;;;4974444;28;19910;-65
2022/01/22 07:49:05;;;;;;;;;;;5.90;62.60;;;;;;4974706;28;19910;-63
2022/01/22 07:51:31;;;;;;;;;;;6.10;62.40;;;;;;4974750;28;20362;-64
2022/01/22 07:53:56;;;;;;;;;;;6.30;61.80;;;;;;4974727;28;19918;-61
2022/01/22 07:56:22;;;;;;;;;;;6.20;61.90;;;;;;4974422;28;19917;-60
2022/01/22 07:58:48;;;;;;;;;;;6.00;63.30;;;;;;4974608;28;19997;-61
2022/01/22 08:01:13;;;;;;;;;;;6.00;64.10;;;;;;4974340;28;19922;-62
2022/01/22 08:03:39;;;;;;;;;;;6.10;62.90;;;;;;4974648;28;19940;-62
2022/01/22 08:06:05;;;;;;;;;;;6.30;62.50;;;;;;4974432;28;19930;-62
2022/01/22 08:08:30;;;;;;;;;;;6.30;62.60;;;;;;4974370;28;19917;-62
2022/01/22 08:10:56;;;;;;;;;;;6.40;63.00;;;;;;4974551;28;19910;-61
2022/01/22 08:13:22;;;;;;;;;;;6.60;62.60;;;;;;4974471;28;19917;-62
2022/01/22 08:15:47;;;;;;;;;;;6.60;63.10;;;;;;4974332;28;19916;-63
2022/01/22 08:18:13;;;;;;;;;;;6.60;63.40;;;;;;4974575;28;20370;-60
2022/01/22 08:20:39;;;;;;;;;;;6.60;63.40;;;;;;4974201;28;19918;-61
2022/01/22 08:23:04;;;;;;;;;;;6.80;63.20;;;;;;4974205;28;19910;-63
2022/01/22 08:25:32;;;;;;;;;;;6.90;62.80;;;;;;4974547;28;20291;-63
2022/01/22 08:30:34;;;;;;;;;;;7.10;62.20;;;;;;4974286;28;20366;-65
2022/01/22 08:35:53;;;;;;;;;;;7.20;61.80;;;;;;4974646;28;20400;-63
2022/01/22 08:38:19;;;;;;;;;;;7.40;61.40;;;;;;4974498;28;19910;-62
2022/01/22 08:40:45;;;;;;;;;;;7.50;61.00;;;;;;4974294;28;19958;-61
2022/01/22 08:43:10;;;;;;;;;;;7.50;61.00;;;;;;4974159;28;19957;-61
2022/01/22 08:45:37;;;;;;;;;;;7.70;62.20;;;;;;4974325;28;19961;-60
2022/01/22 08:48:04;;;;;;;;;;;7.90;63.70;;;;;;4973157;28;19910;-61
2022/01/22 08:50:29;;;;;;;;;;;8.10;60.20;;;;;;4973411;28;20424;-62
2022/01/22 08:52:55;;;;;;;;;;;8.20;60.30;;;;;;4973250;28;19913;-62
2022/01/22 08:55:21;;;;;;;;;;;8.70;59.80;;;;;;4973224;28;19918;-59
2022/01/22 08:57:49;;;;;;;;;;;9.00;58.70;;;;;;4971351;28;20281;-60
2022/01/22 09:00:16;;;;;;;;;;;9.10;58.60;;;;;;4976037;28;19926;-60
2022/01/22 09:02:43;;;;;;;;;;;9.10;56.60;;;;;;4977201;28;19910;-60
2022/01/22 09:05:09;;;;;;;;;;;8.70;57.20;;;;;;4976307;28;19926;-64
2022/01/22 09:07:35;;;;;;;;;;;8.70;56.70;;;;;;4977476;28;20386;-60
2022/01/22 09:10:00;;;;;;;;;;;8.60;55.50;;;;;;4977365;28;20281;-60
2022/01/22 09:12:26;;;;;;;;;;;8.60;56.60;;;;;;4977100;28;19910;-61
2022/01/22 09:14:51;;;;;;;;;;;8.40;57.00;;;;;;4976614;28;19910;-61
2022/01/22 09:17:17;;;;;;;;;;;8.40;57.00;;;;;;4977073;28;20004;-58
2022/01/22 09:19:46;;;;;;;;;;;8.50;56.00;;;;;;4977145;28;19917;-61
2022/01/22 09:22:12;;;;;;;;;;;8.60;55.80;;;;;;4977189;28;19914;-62
2022/01/22 09:24:37;;;;;;;;;;;8.60;54.70;;;;;;4977214;28;20008;-64
2022/01/22 09:27:05;;;;;;;;;;;8.70;54.00;;;;;;4977150;28;19911;-63
2022/01/22 09:29:31;;;;;;;;;;;8.50;53.60;;;;;;4977369;28;19910;-65
2022/01/22 09:31:56;;;;;;;;;;;8.50;53.10;;;;;;4976718;28;20338;-62
2022/01/22 09:34:22;;;;;;;;;;;8.20;53.80;;;;;;4977075;28;19970;-62
2022/01/22 09:36:47;;;;;;;;;;;8.40;54.00;;;;;;4977175;28;19956;-61
2022/01/22 09:39:13;;;;;;;;;;;8.40;53.00;;;;;;4976676;28;19914;-61
2022/01/22 09:41:39;;;;;;;;;;;8.40;51.90;;;;;;4977432;28;20351;-61
2022/01/22 09:44:05;;;;;;;;;;;8.00;52.00;;;;;;4977408;28;19962;-61
2022/01/22 09:46:31;;;;;;;;;;;8.10;52.20;;;;;;4977503;28;19910;-61
2022/01/22 09:48:57;;;;;;;;;;;8.00;52.20;;;;;;4980613;28;19996;-61
2022/01/22 09:51:23;;;;;;;;;;;7.80;53.00;;;;;;4992733;28;19918;-61
2022/01/22 09:53:49;;;;;;;;;;;7.90;53.50;;;;;;4994959;28;19918;-61
2022/01/22 09:56:20;;;;;;;;;;;7.80;52.80;;;;;;5020942;28;19917;-60
2022/01/22 09:58:46;;;;;;;;;;;8.00;52.90;;;;;;4989942;28;19923;-62
2022/01/22 10:01:28;;;;;;;;;;;8.20;51.70;;;;;;4978461;28;19941;-60
2022/01/22 10:03:55;;;;;;;;;;;8.40;51.00;;;;;;4977701;28;19914;-61
2022/01/22 10:06:25;;;;;;;;;;;8.50;51.40;;;;;;4976960;28;20046;-60
2022/01/22 10:08:56;;;;;;;;;;;8.70;50.80;;;;;;4978785;28;20362;-62
2022/01/22 10:11:23;;;;;;;;;;;8.90;50.60;;;;;;4975794;28;19914;-62
2022/01/22 10:13:50;;;;;;;;;;;9.00;49.10;;;;;;4976211;28;20008;-61
2022/01/22 10:16:20;;;;;;;;;;;9.00;49.10;;;;;;4975979;28;20006;-61
2022/01/22 10:19:06;;;;;;;;;;;9.10;49.10;;;;;;4975606;28;20318;-63
2022/01/22 10:21:32;;;;;;;;;;;9.10;49.30;;;;;;4974584;28;20293;-62
2022/01/22 10:24:17;;;;;;;;;;;9.30;48.20;;;;;;4976064;28;19997;-61
2022/01/22 10:26:42;;;;;;;;;;;9.20;47.00;;;;;;4972946;28;19917;-62
2022/01/22 10:29:09;;;;;;;;;;;8.80;48.20;;;;;;4975637;28;19910;-64
2022/01/22 10:31:41;;;;;;;;;;;9.00;51.00;;;;;;4975747;28;19912;-61
2022/01/22 10:34:08;;;;;;;;;;;9.00;48.70;;;;;;4975784;28;19920;-63
2022/01/22 10:36:34;;;;;;;;;;;8.80;48.80;;;;;;4976466;28;20297;-61
2022/01/22 10:39:00;;;;;;;;;;;8.80;48.80;;;;;;4976120;28;20001;-62
2022/01/22 10:41:35;;;;;;;;;;;8.90;49.30;;;;;;4976274;28;20013;-62
2022/01/22 10:44:02;;;;;;;;;;;8.90;48.90;;;;;;4976177;28;19910;-62
2022/01/22 10:48:56;;;;;;;;;;;9.00;49.20;;;;;;4976032;28;19993;-61
2022/01/22 10:51:22;;;;;;;;;;;9.20;49.10;;;;;;4975777;28;19917;-62
2022/01/22 10:53:59;;;;;;;;;;;9.50;49.10;;;;;;4976083;28;19953;-62
2022/01/22 10:56:25;;;;;;;;;;;9.50;48.10;;;;;;4975415;28;19914;-63
2022/01/22 10:58:54;;;;;;;;;;;9.60;47.20;;;;;;4975828;28;20010;-62
2022/01/22 11:01:20;;;;;;;;;;;9.60;47.60;;;;;;4975590;28;20362;-61
2022/01/22 11:03:46;;;;;;;;;;;9.90;47.70;;;;;;4974639;28;19921;-62
2022/01/22 11:06:23;;;;;;;;;;;10.10;47.40;;;;;;4975550;28;19930;-62
2022/01/22 11:08:49;;;;;;;;;;;10.30;45.90;;;;;;4975842;28;19921;-62
2022/01/22 11:11:14;;;;;;;;;;;10.40;46.20;;;;;;4975551;28;19914;-61
2022/01/22 11:13:40;;;;;;;;;;;10.30;46.70;;;;;;4975499;28;19952;-63
2022/01/22 11:16:06;;;;;;;;;;;10.40;46.50;;;;;;4975552;28;19946;-62
2022/01/22 11:18:32;;;;;;;;;;;10.30;45.60;;;;;;4975919;28;20278;-62
2022/01/22 11:20:58;;;;;;;;;;;10.50;45.80;;;;;;4975172;28;19918;-61
2022/01/22 11:23:24;;;;;;;;;;;10.50;45.40;;;;;;4974832;28;19911;-67
2022/01/22 11:25:50;;;;;;;;;;;10.60;45.40;;;;;;4975322;28;19964;-62
2022/01/22 11:28:16;;;;;;;;;;;10.80;44.90;;;;;;4975663;28;19910;-62
2022/01/22 11:30:43;;;;;;;;;;;10.90;44.60;;;;;;4975526;28;19910;-62
2022/01/22 11:33:11;;;;;;;;;;;10.80;44.50;;;;;;4975103;28;20029;-61
2022/01/22 11:35:48;;;;;;;;;;;10.60;45.00;;;;;;4975453;28;20259;-62
2022/01/22 11:38:16;;;;;;;;;;;10.60;45.20;;;;;;4974805;28;19917;-62
2022/01/22 11:40:43;;;;;;;;;;;10.60;45.50;;;;;;4974655;28;19965;-62
2022/01/22 11:43:12;;;;;;;;;;;10.70;45.20;;;;;;4974410;28;19964;-63
2022/01/22 11:45:49;;;;;;;;;;;10.90;43.70;;;;;;4974442;28;20389;-60
2022/01/22 11:48:15;;;;;;;;;;;10.80;43.70;;;;;;4974530;28;19996;-65
2022/01/22 11:50:42;;;;;;;;;;;10.80;44.10;;;;;;4975391;28;19946;-66
2022/01/22 11:53:46;;;;;;;;;;;10.80;45.30;;;;;;4974714;28;19941;-68
2022/01/22 11:56:12;;;;;;;;;;;10.70;44.80;;;;;;4913913;29;19947;-65
2022/01/22 11:58:55;;;;;;;;;;;10.90;44.30;;;;;;4916755;29;19911;-64
2022/01/22 12:01:40;;;;;;;;;;;11.00;43.30;;;;;;4914297;29;20307;-67
2022/01/22 12:04:06;;;;;;;;;;;11.10;43.50;;;;;;4914369;29;19911;-70
2022/01/22 12:06:32;;;;;;;;;;;11.10;43.70;;;;;;4914700;29;20327;-75
2022/01/22 12:09:11;;;;;;;;;;;10.70;44.00;;;;;;4914911;29;19998;-68
2022/01/22 12:14:47;;;;;;;;;;;10.80;44.90;;;;;;4914914;29;19918;-66
2022/01/22 12:17:18;;;;;;;;;;;10.80;43.30;;;;;;4914579;29;19918;-67
2022/01/22 12:20:04;;;;;;;;;;;11.00;43.20;;;;;;4914149;29;19994;-67
2022/01/22 12:22:39;;;;;;;;;;;11.10;43.10;;;;;;4914462;29;19919;-69
2022/01/22 12:25:07;;;;;;;;;;;10.40;43.50;;;;;;4914582;29;19944;-68
2022/01/22 12:27:42;;;;;;;;;;;10.20;44.90;;;;;;4958860;28;20374;-61
2022/01/22 12:30:08;;;;;;;;;;;10.40;45.80;;;;;;4973895;28;19917;-66
2022/01/22 12:32:44;;;;;;;;;;;10.60;45.50;;;;;;4974145;28;20274;-68
2022/01/22 12:35:12;;;;;;;;;;;10.70;45.00;;;;;;4976645;28;19957;-66
2022/01/22 12:37:41;;;;;;;;;;;10.90;45.40;;;;;;4977979;28;19925;-68
2022/01/22 12:40:07;;;;;;;;;;;10.90;45.00;;;;;;4977673;28;20322;-67
2022/01/22 12:42:55;;;;;;;;;;;11.00;44.60;;;;;;4977583;28;19984;-69
2022/01/22 12:45:22;;;;;;;;;;;11.00;45.10;;;;;;4977887;28;19962;-73
2022/01/22 12:47:49;;;;;;;;;;;10.70;45.90;;;;;;4978055;28;19910;-72
2022/01/22 12:50:15;;;;;;;;;;;10.60;47.70;;;;;;4977466;28;19921;-66
2022/01/22 12:52:46;;;;;;;;;;;10.40;48.10;;;;;;4977644;28;20333;-72
2022/01/22 12:55:15;;;;;;;;;;;10.30;52.20;;;;;;4977806;28;19910;-73
2022/01/22 12:57:41;;;;;;;;;;;10.40;53.00;;;;;;4977812;28;20321;-67
2022/01/22 13:00:13;;;;;;;;;;;10.20;54.10;;;;;;4977615;28;19937;-67
2022/01/22 13:02:40;;;;;;;;;;;10.20;56.30;;;;;;4977203;28;20441;-72
2022/01/22 13:05:06;;;;;;;;;;;10.10;58.50;;;;;;4977203;28;19926;-67
2022/01/22 13:07:45;;;;;;;;;;;10.00;59.90;;;;;;4977129;28;19936;-65
2022/01/22 13:10:11;;;;;;;;;;;10.00;60.80;;;;;;4977482;28;20251;-70
2022/01/22 13:12:37;;;;;;;;;;;10.00;61.40;;;;;;4977323;28;19957;-67
2022/01/22 13:15:04;;;;;;;;;;;10.00;61.80;;;;;;4977829;28;19911;-77
2022/01/22 13:17:30;;;;;;;;;;;9.70;63.60;;;;;;4977258;28;20333;-71
2022/01/22 13:19:56;;;;;;;;;;;9.70;64.00;;;;;;4977029;28;19917;-71
2022/01/22 13:22:31;;;;;;;;;;;9.80;64.40;;;;;;4977012;28;19914;-66
2022/01/22 13:25:07;;;;;;;;;;;9.80;64.60;;;;;;4976720;28;19918;-66
2022/01/22 13:27:34;;;;;;;;;;;9.80;64.40;;;;;;4978295;28;19968;-65
2022/01/22 13:29:59;;;;;;;;;;;9.80;64.50;;;;;;4976663;28;19914;-64
2022/01/22 13:35:30;;;;;;;;;;;9.70;64.40;;;;;;4979447;28;19926;-64
2022/01/22 13:48:58;;;;;;;;;;;9.40;65.10;;;;;;4987365;28;19953;-62
2022/01/22 13:51:27;;;;;;;;;;;9.30;65.60;;;;;;4989517;28;19918;-67
2022/01/22 13:53:53;;;;;;;;;;;9.30;65.50;;;;;;4985552;28;19956;-64
2022/01/22 13:56:21;;;;;;;;;;;9.40;65.10;;;;;;4977842;28;19911;-64
2022/01/22 13:58:47;;;;;;;;;;;9.40;65.10;;;;;;4977245;28;19911;-63
2022/01/22 14:01:32;;;;;;;;;;;9.40;65.00;;;;;;4976959;28;19925;-67
2022/01/22 14:04:04;;;;;;;;;;;9.50;64.80;;;;;;4976745;28;20354;-68
2022/01/22 14:06:33;;;;;;;;;;;9.50;65.00;;;;;;4976326;28;19927;-63
2022/01/22 14:09:10;;;;;;;;;;;9.40;64.70;;;;;;4973813;28;19910;-66
2022/01/22 14:11:36;;;;;;;;;;;9.20;65.00;;;;;;4976013;28;19910;-68
2022/01/22 14:14:02;;;;;;;;;;;9.20;65.60;;;;;;4975759;28;19926;-68
2022/01/22 14:16:29;;;;;;;;;;;9.20;65.60;;;;;;4975740;28;20037;-65
2022/01/22 14:18:57;;;;;;;;;;;9.20;65.40;;;;;;4976088;28;19911;-69
2022/01/22 14:21:24;;;;;;;;;;;9.20;65.30;;;;;;4975571;28;19918;-64
2022/01/22 14:23:50;;;;;;;;;;;9.10;65.60;;;;;;4975786;28;19917;-63
2022/01/22 14:26:21;;;;;;;;;;;9.10;65.90;;;;;;4976361;28;20004;-64
2022/01/22 14:28:51;;;;;;;;;;;9.00;66.00;;;;;;4975112;28;19910;-66
2022/01/22 14:31:43;;;;;;;;;;;9.00;66.20;;;;;;4976030;28;19917;-67
2022/01/22 14:34:13;;;;;;;;;;;9.00;66.20;;;;;;4976226;28;19910;-65
2022/01/22 14:36:41;;;;;;;;;;;8.80;66.80;;;;;;4976125;28;20389;-64
2022/01/22 14:39:13;;;;;;;;;;;8.80;66.80;;;;;;4976246;28;19957;-70
2022/01/22 14:44:37;;;;;;;;;;;8.70;67.20;;;;;;4976312;28;19916;-64
2022/01/22 14:47:08;;;;;;;;;;;8.60;67.40;;;;;;4976099;28;19998;-65
2022/01/22 14:49:39;;;;;;;;;;;8.60;67.50;;;;;;4975816;28;19914;-63
2022/01/22 14:52:06;;;;;;;;;;;8.60;68.10;;;;;;4975786;28;19968;-62
2022/01/22 14:54:33;;;;;;;;;;;8.50;68.10;;;;;;4975034;28;20478;-67
2022/01/22 14:56:59;;;;;;;;;;;8.40;68.30;;;;;;4974363;28;19917;-63
2022/01/22 14:59:24;;;;;;;;;;;8.50;68.50;;;;;;4974733;28;20274;-60
2022/01/22 15:01:50;;;;;;;;;;;8.30;68.70;;;;;;4973508;28;19918;-61
2022/01/22 15:04:16;;;;;;;;;;;8.30;68.90;;;;;;4974780;28;19917;-62
2022/01/22 15:06:44;;;;;;;;;;;8.10;69.20;;;;;;4974961;28;19922;-62
2022/01/22 15:09:10;;;;;;;;;;;8.00;69.50;;;;;;4974155;28;19914;-63
2022/01/22 15:11:37;;;;;;;;;;;7.90;70.10;;;;;;4975710;28;20385;-62
2022/01/22 15:14:04;;;;;;;;;;;7.90;70.60;;;;;;4975547;28;20354;-61
2022/01/22 15:16:37;;;;;;;;;;;7.80;70.50;;;;;;4973055;28;19922;-62
2022/01/22 15:19:04;;;;;;;;;;;7.70;71.10;;;;;;4974139;28;19914;-62
2022/01/22 15:21:30;;;;;;;;;;;7.70;71.00;;;;;;4974639;28;19927;-61
2022/01/22 15:23:55;;;;;;;;;;;7.60;71.30;;;;;;4974032;28;19914;-61
2022/01/22 15:26:21;;;;;;;;;;;7.60;71.50;;;;;;4974836;28;19962;-62
2022/01/22 15:28:47;;;;;;;;;;;7.50;71.40;;;;;;4975319;28;19910;-62
2022/01/22 15:34:15;;;;;;;;;;;7.40;72.00;;;;;;4934308;29;20371;-62
2022/01/22 15:36:43;;;;;;;;;;;7.30;72.40;;;;;;4966742;28;19941;-63
2022/01/22 15:39:09;;;;;;;;;;;7.40;72.50;;;;;;4974512;28;20397;-60
2022/01/22 15:41:37;;;;;;;;;;;7.30;72.80;;;;;;4974564;28;19918;-60
2022/01/22 15:44:07;;;;;;;;;;;7.30;73.00;;;;;;4974197;28;19917;-64
2022/01/22 15:46:34;;;;;;;;;;;7.20;72.70;;;;;;4974655;28;19911;-63
2022/01/22 15:48:59;;;;;;;;;;;7.20;73.00;;;;;;4974288;28;19910;-63
2022/01/22 15:51:25;;;;;;;;;;;7.10;72.90;;;;;;4974288;28;19916;-64
2022/01/22 15:53:50;;;;;;;;;;;7.00;73.30;;;;;;4974564;28;19957;-63
2022/01/22 15:56:16;;;;;;;;;;;6.90;73.60;;;;;;4974305;28;19911;-62
2022/01/22 15:58:42;;;;;;;;;;;6.90;73.60;;;;;;4974170;28;19933;-64
2022/01/22 16:01:09;;;;;;;;;;;7.00;73.30;;;;;;4972468;28;20807;-62
2022/01/22 16:03:35;;;;;;;;;;;7.00;73.60;;;;;;4974027;28;19914;-61
2022/01/22 16:06:08;;;;;;;;;;;6.80;73.00;;;;;;4974134;28;19934;-63
2022/01/22 16:08:34;;;;;;;;;;;6.70;74.00;;;;;;4973633;28;19933;-62
2022/01/22 16:11:00;;;;;;;;;;;6.70;74.30;;;;;;4973762;28;19918;-63
2022/01/22 16:13:25;;;;;;;;;;;6.70;74.00;;;;;;4960603;28;19910;-63
2022/01/22 16:15:51;;;;;;;;;;;6.70;74.10;;;;;;4973868;28;19910;-61
2022/01/22 16:18:17;;;;;;;;;;;6.70;74.10;;;;;;4985767;28;20005;-62
2022/01/22 16:20:43;;;;;;;;;;;6.60;74.20;;;;;;4973720;28;20297;-61
2022/01/22 16:23:09;;;;;;;;;;;6.60;74.50;;;;;;4973945;28;19996;-62
2022/01/22 16:25:35;;;;;;;;;;;6.60;74.30;;;;;;4973954;28;19911;-63
2022/01/22 16:28:00;;;;;;;;;;;6.60;74.10;;;;;;4974126;28;19910;-63
2022/01/22 16:30:26;;;;;;;;;;;6.70;73.70;;;;;;4972799;28;19981;-62
2022/01/22 16:32:52;;;;;;;;;;;6.60;73.70;;;;;;4973956;28;19914;-62
2022/01/22 16:35:17;;;;;;;;;;;6.50;74.30;;;;;;4973736;28;19921;-60